createdAt,value
2023-03-19T00:01:15.724Z,10.30
2023-03-19T00:03:44.569Z,10.30
2023-03-19T00:06:12.995Z,10.10
2023-03-19T00:08:42.000Z,10.30
2023-03-19T00:11:11.534Z,10.30
2023-03-19T00:13:39.983Z,10.30
2023-03-19T00:16:09.988Z,10.30
2023-03-19T00:18:38.398Z,10.30
2023-03-19T00:21:07.228Z,10.40
2023-03-19T00:23:36.267Z,10.30
2023-03-19T00:26:05.024Z,10.30
2023-03-19T00:28:33.711Z,10.30
2023-03-19T00:31:10.939Z,10.30
2023-03-19T00:33:39.642Z,10.30
2023-03-19T00:36:08.873Z,10.30
2023-03-19T00:38:37.591Z,10.30
2023-03-19T00:41:07.545Z,10.30
2023-03-19T00:43:35.929Z,10.30
2023-03-19T00:46:04.320Z,10.30
2023-03-19T00:48:34.443Z,10.30
2023-03-19T00:51:04.883Z,10.30
2023-03-19T00:53:33.525Z,10.30
2023-03-19T00:56:01.740Z,10.30
2023-03-19T00:58:30.114Z,10.30
2023-03-19T01:00:58.508Z,10.20
2023-03-19T01:03:26.829Z,10.30
2023-03-19T01:05:56.511Z,10.20
2023-03-19T01:08:24.802Z,10.20
2023-03-19T01:10:54.219Z,10.20
2023-03-19T01:13:22.570Z,10.30
2023-03-19T01:15:53.746Z,10.30
2023-03-19T01:18:23.465Z,10.20
2023-03-19T01:20:51.787Z,10.20
2023-03-19T01:23:21.819Z,10.20
2023-03-19T01:25:50.254Z,10.10
2023-03-19T01:28:18.590Z,10.20
2023-03-19T01:30:47.169Z,10.20
2023-03-19T01:33:50.771Z,10.20
2023-03-19T01:36:28.133Z,10.10
2023-03-19T01:39:03.325Z,10.10
2023-03-19T01:41:31.830Z,10.10
2023-03-19T01:44:25.040Z,10.10
2023-03-19T01:47:18.170Z,10.10
2023-03-19T01:50:25.987Z,10.10
2023-03-19T01:53:16.547Z,10.10
2023-03-19T01:56:08.479Z,10.00
2023-03-19T01:59:10.561Z,10.10
2023-03-19T02:02:01.714Z,10.00
2023-03-19T02:04:32.262Z,9.70
2023-03-19T02:07:02.355Z,10.00
2023-03-19T02:09:32.126Z,10.00
2023-03-19T02:12:03.206Z,10.00
2023-03-19T02:14:32.472Z,10.00
2023-03-19T02:17:01.420Z,10.00
2023-03-19T02:19:36.529Z,10.00
2023-03-19T02:22:06.849Z,10.00
2023-03-19T02:24:40.381Z,10.00
2023-03-19T02:27:14.996Z,10.00
2023-03-19T02:29:49.347Z,10.00
2023-03-19T02:32:18.099Z,10.00
2023-03-19T02:34:46.553Z,10.00
2023-03-19T02:37:19.853Z,10.00
2023-03-19T02:39:53.117Z,10.00
2023-03-19T02:42:25.403Z,10.00
2023-03-19T02:44:53.799Z,9.90
2023-03-19T02:47:22.273Z,10.00
2023-03-19T02:49:51.155Z,9.90
2023-03-19T02:52:20.291Z,10.00
2023-03-19T02:54:48.667Z,9.90
2023-03-19T02:57:17.093Z,10.20
2023-03-19T02:59:46.799Z,9.90
2023-03-19T03:02:15.423Z,9.90
2023-03-19T03:04:43.692Z,9.90
2023-03-19T03:07:12.269Z,9.90
2023-03-19T03:09:40.834Z,9.90
2023-03-19T03:12:10.218Z,9.80
2023-03-19T03:14:38.446Z,9.80
2023-03-19T03:17:08.963Z,9.80
2023-03-19T03:19:37.501Z,9.80
2023-03-19T03:22:06.431Z,9.80
2023-03-19T03:24:34.841Z,9.80
2023-03-19T03:27:03.121Z,9.80
2023-03-19T03:29:31.427Z,9.80
2023-03-19T03:31:59.801Z,9.80
2023-03-19T03:34:29.762Z,9.80
2023-03-19T03:36:58.151Z,9.80
2023-03-19T03:39:26.550Z,9.80
2023-03-19T03:41:54.853Z,9.80
2023-03-19T03:44:23.882Z,9.80
2023-03-19T03:46:53.413Z,9.80
2023-03-19T03:49:21.887Z,9.90
2023-03-19T03:51:51.577Z,9.90
2023-03-19T03:54:20.061Z,9.90
2023-03-19T03:56:50.217Z,9.80
2023-03-19T03:59:18.617Z,9.80
2023-03-19T04:01:46.884Z,9.80
2023-03-19T04:04:15.563Z,9.80
2023-03-19T04:06:43.896Z,9.90
2023-03-19T04:09:18.272Z,9.90
2023-03-19T04:11:47.175Z,9.80
2023-03-19T04:14:15.557Z,9.80
2023-03-19T04:16:44.362Z,9.80
2023-03-19T04:19:13.048Z,9.80
2023-03-19T04:21:41.408Z,9.80
2023-03-19T04:24:11.578Z,9.80
2023-03-19T04:26:42.244Z,9.70
2023-03-19T04:29:10.923Z,9.80
2023-03-19T04:31:39.869Z,9.80
2023-03-19T04:34:08.175Z,9.80
2023-03-19T04:36:36.705Z,9.80
2023-03-19T04:39:05.334Z,9.80
2023-03-19T04:41:33.661Z,9.80
2023-03-19T04:44:24.340Z,9.80
2023-03-19T04:46:52.709Z,9.80
2023-03-19T04:49:22.689Z,9.80
2023-03-19T04:51:52.724Z,9.70
2023-03-19T04:54:21.205Z,9.70
2023-03-19T04:56:49.444Z,9.90
2023-03-19T04:59:18.403Z,9.70
2023-03-19T05:01:48.235Z,9.70
2023-03-19T05:04:21.056Z,9.80
2023-03-19T05:06:50.544Z,9.80
2023-03-19T05:09:19.857Z,9.70
2023-03-19T05:11:48.238Z,9.80
2023-03-19T05:14:20.838Z,9.70
2023-03-19T05:17:04.915Z,9.90
2023-03-19T05:19:46.087Z,9.90
2023-03-19T05:22:14.447Z,9.70
2023-03-19T05:24:43.117Z,9.70
2023-03-19T05:27:12.390Z,9.70
2023-03-19T05:29:47.147Z,9.70
2023-03-19T05:32:40.821Z,9.90
2023-03-19T05:35:15.315Z,9.70
2023-03-19T05:37:44.272Z,9.70
2023-03-19T05:40:13.674Z,9.70
2023-03-19T05:42:45.363Z,9.80
2023-03-19T05:45:16.457Z,9.80
2023-03-19T05:47:53.169Z,9.80
2023-03-19T05:50:23.063Z,9.70
2023-03-19T05:53:11.598Z,9.80
2023-03-19T05:55:44.521Z,9.70
2023-03-19T05:58:12.837Z,9.70
2023-03-19T06:00:41.619Z,9.80
2023-03-19T06:03:11.374Z,9.80
2023-03-19T06:05:50.351Z,9.90
2023-03-19T06:08:38.908Z,9.90
2023-03-19T06:11:18.255Z,9.90
2023-03-19T06:13:52.990Z,10.00
2023-03-19T06:16:22.875Z,10.00
2023-03-19T06:18:57.094Z,10.00
2023-03-19T06:21:29.771Z,10.00
2023-03-19T06:24:01.877Z,10.10
2023-03-19T06:26:35.002Z,10.10
2023-03-19T06:29:08.352Z,10.10
2023-03-19T06:31:39.523Z,10.10
2023-03-19T06:34:29.932Z,10.00
2023-03-19T06:36:58.389Z,10.10
2023-03-19T06:39:26.785Z,10.20
2023-03-19T06:41:55.230Z,10.10
2023-03-19T06:44:27.504Z,10.20
2023-03-19T06:46:55.734Z,10.10
2023-03-19T06:49:24.615Z,10.20
2023-03-19T06:51:54.372Z,10.20
2023-03-19T06:54:22.874Z,10.20
2023-03-19T06:56:51.479Z,10.20
2023-03-19T06:59:19.970Z,10.20
2023-03-19T07:01:48.201Z,10.20
2023-03-19T07:04:16.534Z,10.20
2023-03-19T07:06:44.794Z,10.20
2023-03-19T07:09:14.510Z,10.20
2023-03-19T07:11:42.938Z,10.50
2023-03-19T07:14:11.567Z,10.30
2023-03-19T07:16:39.796Z,10.30
2023-03-19T07:19:08.152Z,10.30
2023-03-19T07:21:36.517Z,10.30
2023-03-19T07:24:05.466Z,10.30
2023-03-19T07:26:36.319Z,10.30
2023-03-19T07:29:04.758Z,10.30
2023-03-19T07:31:33.038Z,10.40
2023-03-19T07:34:01.356Z,10.40
2023-03-19T07:36:29.690Z,10.30
2023-03-19T07:38:58.480Z,10.40
2023-03-19T07:41:27.357Z,10.40
2023-03-19T07:43:57.123Z,10.30
2023-03-19T07:46:25.482Z,10.30
2023-03-19T07:48:53.710Z,10.40
2023-03-19T07:51:22.097Z,10.40
2023-03-19T07:53:50.477Z,10.40
2023-03-19T07:56:18.643Z,10.40
2023-03-19T07:58:46.877Z,10.40
2023-03-19T08:01:16.749Z,10.40
2023-03-19T08:03:44.977Z,10.40
2023-03-19T08:06:13.251Z,10.50
2023-03-19T08:08:41.827Z,10.40
2023-03-19T08:11:10.126Z,10.40
2023-03-19T08:13:38.438Z,10.40
2023-03-19T08:16:07.733Z,10.40
2023-03-19T08:18:37.686Z,10.40
2023-03-19T08:21:06.806Z,10.40
2023-03-19T08:23:36.400Z,10.40
2023-03-19T08:26:04.869Z,10.40
2023-03-19T08:28:33.147Z,10.50
2023-03-19T08:31:08.889Z,10.40
2023-03-19T08:33:38.803Z,10.40
2023-03-19T08:36:09.286Z,10.40
2023-03-19T08:38:37.988Z,10.50
2023-03-19T08:41:06.668Z,10.50
2023-03-19T08:43:37.928Z,10.50
2023-03-19T08:46:07.255Z,10.50
2023-03-19T08:48:35.672Z,10.50
2023-03-19T08:51:06.005Z,10.50
2023-03-19T08:53:34.608Z,10.50
2023-03-19T08:56:04.270Z,10.50
2023-03-19T08:58:33.227Z,10.50
2023-03-19T09:01:07.340Z,10.50
2023-03-19T09:03:36.155Z,10.50
2023-03-19T09:06:07.699Z,10.50
2023-03-19T09:08:37.316Z,10.60
2023-03-19T09:11:06.659Z,10.60
2023-03-19T09:13:36.713Z,10.50
2023-03-19T09:16:05.357Z,10.50
2023-03-19T09:18:34.028Z,10.50
2023-03-19T09:21:03.072Z,10.50
2023-03-19T09:23:32.811Z,10.60
2023-03-19T09:26:01.162Z,10.60
2023-03-19T09:28:29.455Z,10.60
2023-03-19T09:30:57.825Z,10.60
2023-03-19T09:33:26.259Z,10.60
2023-03-19T09:35:55.427Z,10.60
2023-03-19T09:38:23.896Z,10.70
2023-03-19T09:41:06.914Z,10.70
2023-03-19T09:43:59.254Z,10.70
2023-03-19T09:46:33.876Z,10.70
2023-03-19T09:49:07.451Z,10.70
2023-03-19T09:51:42.721Z,10.60
2023-03-19T09:54:25.720Z,10.70
2023-03-19T09:56:56.337Z,10.70
2023-03-19T09:59:27.106Z,10.70
2023-03-19T10:02:02.479Z,10.60
2023-03-19T10:04:47.406Z,10.60
2023-03-19T10:07:30.688Z,10.60
2023-03-19T10:10:13.998Z,10.60
2023-03-19T10:12:54.800Z,10.60
2023-03-19T10:15:26.273Z,10.60
2023-03-19T10:17:59.434Z,10.70
2023-03-19T10:20:36.738Z,10.70
2023-03-19T10:23:19.875Z,10.60
2023-03-19T10:25:49.176Z,10.70
2023-03-19T10:28:22.202Z,10.70
2023-03-19T10:30:58.205Z,10.70
2023-03-19T10:33:35.065Z,10.70
2023-03-19T10:36:09.166Z,10.70
2023-03-19T10:38:41.759Z,10.70
2023-03-19T10:41:25.821Z,10.70
2023-03-19T10:43:58.141Z,10.80
2023-03-19T10:46:26.447Z,10.80
2023-03-19T10:48:54.771Z,10.70
2023-03-19T10:51:26.079Z,10.80
2023-03-19T10:53:56.853Z,11.10
2023-03-19T10:56:27.072Z,10.80
2023-03-19T10:59:02.605Z,10.90
2023-03-19T11:01:35.178Z,10.90
2023-03-19T11:04:12.793Z,10.90
2023-03-19T11:06:41.709Z,10.90
2023-03-19T11:09:19.806Z,11.00
2023-03-19T11:11:50.968Z,10.80
2023-03-19T11:14:25.628Z,10.80
2023-03-19T11:16:58.445Z,10.90
2023-03-19T11:19:29.549Z,10.80
2023-03-19T11:22:08.732Z,10.80
2023-03-19T11:24:39.807Z,10.90
2023-03-19T11:27:09.190Z,10.90
2023-03-19T11:29:42.707Z,10.90
2023-03-19T11:32:25.034Z,10.90
2023-03-19T11:34:59.035Z,10.90
2023-03-19T11:37:34.589Z,10.90
2023-03-19T11:40:11.367Z,11.00
2023-03-19T11:43:01.395Z,11.00
2023-03-19T11:45:40.532Z,11.00
2023-03-19T11:48:32.582Z,11.00
2023-03-19T11:51:04.572Z,10.90
2023-03-19T11:53:38.166Z,11.00
2023-03-19T11:56:17.705Z,11.00
2023-03-19T11:59:05.246Z,11.00
2023-03-19T12:01:56.787Z,11.00
2023-03-19T12:04:35.758Z,11.00
2023-03-19T12:07:15.202Z,11.00
2023-03-19T12:09:53.809Z,11.00
2023-03-19T12:12:27.101Z,11.00
2023-03-19T12:15:09.399Z,11.00
2023-03-19T12:17:47.405Z,11.00
2023-03-19T12:20:33.182Z,11.00
2023-03-19T12:23:07.906Z,11.30
2023-03-19T12:26:04.712Z,11.00
2023-03-19T12:28:36.098Z,11.10
2023-03-19T12:31:43.793Z,11.00
2023-03-19T12:34:24.974Z,11.10
2023-03-19T12:36:59.737Z,11.10
2023-03-19T12:39:33.569Z,11.10
2023-03-19T12:42:03.778Z,11.10
2023-03-19T12:44:37.570Z,11.00
2023-03-19T12:47:09.947Z,11.00
2023-03-19T12:49:46.363Z,11.00
2023-03-19T12:52:21.492Z,11.00
2023-03-19T12:54:56.489Z,11.00
2023-03-19T12:57:33.403Z,11.00
2023-03-19T13:00:06.926Z,11.10
2023-03-19T13:02:40.254Z,11.10
2023-03-19T13:05:23.088Z,11.10
2023-03-19T13:08:00.556Z,11.10
2023-03-19T13:10:32.431Z,11.10
2023-03-19T13:13:03.695Z,11.10
2023-03-19T13:15:36.946Z,11.10
2023-03-19T13:18:21.055Z,11.10
2023-03-19T13:21:05.330Z,11.10
2023-03-19T13:23:37.219Z,11.10
2023-03-19T13:26:08.717Z,11.00
2023-03-19T13:28:39.462Z,11.00
2023-03-19T13:31:10.590Z,11.00
2023-03-19T13:33:40.320Z,11.10
2023-03-19T13:36:15.344Z,11.10
2023-03-19T13:38:48.675Z,11.10
2023-03-19T13:41:54.887Z,11.10
2023-03-19T13:44:34.214Z,11.10
2023-03-19T13:47:03.675Z,11.10
2023-03-19T13:49:35.452Z,11.10
2023-03-19T13:52:48.237Z,11.10
2023-03-19T13:55:33.104Z,11.00
2023-03-19T13:58:17.759Z,11.10
2023-03-19T14:00:59.751Z,11.10
2023-03-19T14:03:31.058Z,11.10
2023-03-19T14:06:00.809Z,11.00
2023-03-19T14:08:33.922Z,11.10
2023-03-19T14:11:03.807Z,11.10
2023-03-19T14:13:36.108Z,11.10
2023-03-19T14:16:17.962Z,11.10
2023-03-19T14:18:46.484Z,11.10
2023-03-19T14:21:21.798Z,11.10
2023-03-19T14:23:57.714Z,11.10
2023-03-19T14:26:29.539Z,11.20
2023-03-19T14:29:02.524Z,11.10
2023-03-19T14:31:38.334Z,11.10
2023-03-19T14:34:19.938Z,11.10
2023-03-19T14:36:53.149Z,11.10
2023-03-19T14:39:27.491Z,11.10
2023-03-19T14:42:02.441Z,11.20
2023-03-19T14:45:09.120Z,11.20
2023-03-19T14:48:07.685Z,11.20
2023-03-19T14:51:09.328Z,11.10
2023-03-19T14:53:42.229Z,11.20
2023-03-19T14:56:17.441Z,11.20
2023-03-19T14:58:54.246Z,11.10
2023-03-19T15:01:24.752Z,11.10
2023-03-19T15:03:58.344Z,11.10
2023-03-19T15:06:27.571Z,11.10
2023-03-19T15:09:00.840Z,11.10
2023-03-19T15:11:53.654Z,11.10
2023-03-19T15:14:43.516Z,11.10
2023-03-19T15:17:20.402Z,11.10
2023-03-19T15:19:48.925Z,11.10
2023-03-19T15:22:22.069Z,11.10
2023-03-19T15:24:50.403Z,11.10
2023-03-19T15:27:22.328Z,11.10
2023-03-19T15:29:51.984Z,11.20
2023-03-19T15:33:07.768Z,11.20
2023-03-19T15:35:30.728Z,11.20
2023-03-19T15:38:01.315Z,11.20
2023-03-19T15:40:32.313Z,11.20
2023-03-19T15:43:03.769Z,11.30
2023-03-19T15:45:34.798Z,11.40
2023-03-19T15:48:07.472Z,11.40
2023-03-19T15:50:38.533Z,11.50
2023-03-19T15:53:10.955Z,11.40
2023-03-19T15:55:39.860Z,11.40
2023-03-19T15:58:12.984Z,11.40
2023-03-19T16:00:42.688Z,11.50
2023-03-19T16:03:17.568Z,11.50
2023-03-19T16:05:46.052Z,11.60
2023-03-19T16:08:27.855Z,11.60
2023-03-19T16:13:57.191Z,11.60
2023-03-19T16:16:28.878Z,11.60
2023-03-19T16:18:57.665Z,11.60
2023-03-19T16:21:35.827Z,11.60
2023-03-19T16:24:09.695Z,11.60
2023-03-19T16:26:40.324Z,11.60
2023-03-19T16:29:20.689Z,11.70
2023-03-19T16:31:52.880Z,11.70
2023-03-19T16:34:35.971Z,11.70
2023-03-19T16:37:24.319Z,11.70
2023-03-19T16:39:56.588Z,11.60
2023-03-19T16:42:40.227Z,11.60
2023-03-19T16:45:27.128Z,11.60
2023-03-19T16:47:57.019Z,11.50
2023-03-19T16:50:33.236Z,11.50
2023-03-19T16:53:02.681Z,11.40
2023-03-19T16:55:34.301Z,11.50
2023-03-19T16:58:05.568Z,11.40
2023-03-19T17:00:36.084Z,11.40
2023-03-19T17:03:04.442Z,11.40
2023-03-19T17:05:32.927Z,11.30
2023-03-19T17:08:01.317Z,11.30
2023-03-19T17:10:32.003Z,11.40
2023-03-19T17:13:02.316Z,11.30
2023-03-19T17:15:36.392Z,11.30
2023-03-19T17:18:13.932Z,11.30
2023-03-19T17:20:48.980Z,11.30
2023-03-19T17:23:17.456Z,11.30
2023-03-19T17:25:46.456Z,11.30
2023-03-19T17:28:14.784Z,11.30
2023-03-19T17:30:44.648Z,11.30
2023-03-19T17:33:24.090Z,11.30
2023-03-19T17:35:52.918Z,11.30
2023-03-19T17:38:22.682Z,11.20
2023-03-19T17:40:51.072Z,11.20
2023-03-19T17:43:19.360Z,11.30
2023-03-19T17:45:49.535Z,11.20
2023-03-19T17:48:21.505Z,11.20
2023-03-19T17:50:50.649Z,11.20
2023-03-19T17:53:19.410Z,11.20
2023-03-19T17:55:47.698Z,11.20
2023-03-19T17:58:18.567Z,11.20
2023-03-19T18:00:50.108Z,11.20
2023-03-19T18:03:19.417Z,11.30
2023-03-19T18:05:48.165Z,11.20
2023-03-19T18:08:19.174Z,11.30
2023-03-19T18:10:47.950Z,11.20
2023-03-19T18:13:16.417Z,11.20
2023-03-19T18:15:47.046Z,11.20
2023-03-19T18:18:20.261Z,11.20
2023-03-19T18:20:48.869Z,11.20
2023-03-19T18:23:17.450Z,11.20
2023-03-19T18:25:46.637Z,11.20
2023-03-19T18:28:15.104Z,11.20
2023-03-19T18:30:44.681Z,11.20
2023-03-19T18:33:17.657Z,11.20
2023-03-19T18:35:48.466Z,11.20
2023-03-19T18:38:19.395Z,11.20
2023-03-19T18:40:48.416Z,11.20
2023-03-19T18:43:17.281Z,11.20
2023-03-19T18:45:48.198Z,11.20
2023-03-19T18:48:22.137Z,11.20
2023-03-19T18:50:52.382Z,11.10
2023-03-19T18:53:20.759Z,11.10
2023-03-19T18:55:49.617Z,11.10
2023-03-19T18:58:21.579Z,11.10
2023-03-19T19:00:51.578Z,11.10
2023-03-19T19:03:28.432Z,11.10
2023-03-19T19:05:58.185Z,11.10
2023-03-19T19:08:26.979Z,11.10
2023-03-19T19:10:57.844Z,11.10
2023-03-19T19:13:30.412Z,11.10
2023-03-19T19:15:59.018Z,11.10
2023-03-19T19:18:31.790Z,11.10
2023-03-19T19:21:02.114Z,11.10
2023-03-19T19:23:31.566Z,11.10
2023-03-19T19:25:59.895Z,11.10
2023-03-19T19:28:32.626Z,11.10
2023-03-19T19:31:01.789Z,11.10
2023-03-19T19:33:34.823Z,11.10
2023-03-19T19:36:05.518Z,11.10
2023-03-19T19:38:33.912Z,11.10
2023-03-19T19:41:02.245Z,11.10
2023-03-19T19:43:32.165Z,11.10
2023-03-19T19:46:00.892Z,11.10
2023-03-19T19:48:31.621Z,11.10
2023-03-19T19:51:00.621Z,11.10
2023-03-19T19:53:30.991Z,11.20
2023-03-19T19:55:59.559Z,11.20
2023-03-19T19:58:32.076Z,11.20
2023-03-19T20:01:04.242Z,11.10
2023-03-19T20:03:34.472Z,11.10
2023-03-19T20:06:03.179Z,11.20
2023-03-19T20:08:32.902Z,11.10
2023-03-19T20:11:02.181Z,11.20
2023-03-19T20:13:33.605Z,11.20
2023-03-19T20:16:03.764Z,11.20
2023-03-19T20:18:35.804Z,11.20
2023-03-19T20:21:05.074Z,11.20
2023-03-19T20:23:34.893Z,11.30
2023-03-19T20:26:03.726Z,11.50
2023-03-19T20:28:35.702Z,11.60
2023-03-19T20:31:05.440Z,11.60
2023-03-19T20:33:34.558Z,11.60
2023-03-19T20:36:03.304Z,11.60
2023-03-19T20:38:31.712Z,11.60
2023-03-19T20:41:01.349Z,11.70
2023-03-19T20:43:31.503Z,11.80
2023-03-19T20:46:01.945Z,11.80
2023-03-19T20:48:31.468Z,11.80
2023-03-19T20:51:01.437Z,11.80
2023-03-19T20:53:30.488Z,11.80
2023-03-19T20:56:03.506Z,11.80
2023-03-19T20:58:33.714Z,11.80
2023-03-19T21:01:02.840Z,11.80
2023-03-19T21:03:32.757Z,11.70
2023-03-19T21:06:03.664Z,11.60
2023-03-19T21:08:35.819Z,11.50
2023-03-19T21:11:08.807Z,11.50
2023-03-19T21:13:37.178Z,11.50
2023-03-19T21:16:05.876Z,11.50
2023-03-19T21:18:34.307Z,11.40
2023-03-19T21:21:03.076Z,11.40
2023-03-19T21:23:35.574Z,11.40
2023-03-19T21:26:09.606Z,11.40
2023-03-19T21:28:39.705Z,11.40
2023-03-19T21:31:11.890Z,11.30
2023-03-19T21:33:40.297Z,11.40
2023-03-19T21:36:10.218Z,11.40
2023-03-19T21:38:38.623Z,11.40
2023-03-19T21:41:12.881Z,11.40
2023-03-19T21:43:43.933Z,11.40
2023-03-19T21:46:23.782Z,11.40
2023-03-19T21:48:54.495Z,11.40
2023-03-19T21:51:25.126Z,11.10
2023-03-19T21:53:53.694Z,11.40
2023-03-19T21:56:24.950Z,11.30
2023-03-19T21:58:54.353Z,11.30
2023-03-19T22:01:24.820Z,11.30
2023-03-19T22:03:53.832Z,11.30
2023-03-19T22:06:23.078Z,11.30
2023-03-19T22:08:53.911Z,11.30
2023-03-19T22:11:27.089Z,11.30
2023-03-19T22:13:56.740Z,11.30
2023-03-19T22:16:26.317Z,11.30
2023-03-19T22:18:54.608Z,11.30
2023-03-19T22:21:23.977Z,11.30
2023-03-19T22:23:52.833Z,11.30
2023-03-19T22:26:34.187Z,11.30
2023-03-19T22:29:05.292Z,11.30
2023-03-19T22:31:34.634Z,11.30
2023-03-19T22:34:02.888Z,11.30
2023-03-19T22:36:31.124Z,11.40
2023-03-19T22:38:59.791Z,11.40
2023-03-19T22:41:31.698Z,11.30
2023-03-19T22:44:03.829Z,11.40
2023-03-19T22:46:32.218Z,11.30
2023-03-19T22:49:01.616Z,11.30
2023-03-19T22:51:30.164Z,11.40
2023-03-19T22:53:58.649Z,11.40
2023-03-19T22:56:26.943Z,11.40
2023-03-19T22:58:56.658Z,11.40
2023-03-19T23:21:23.589Z,11.40
2023-03-19T23:23:52.235Z,11.40
2023-03-19T23:26:27.263Z,11.40
2023-03-19T23:28:56.469Z,11.40
2023-03-19T23:31:25.000Z,11.40
2023-03-19T23:33:53.254Z,11.40
2023-03-19T23:36:23.043Z,11.40
2023-03-19T23:38:51.703Z,11.40
2023-03-19T23:41:24.047Z,11.30
2023-03-19T23:43:52.812Z,11.30
2023-03-19T23:46:22.058Z,11.30
2023-03-19T23:48:50.730Z,11.30
2023-03-19T23:51:19.016Z,11.30
2023-03-19T23:53:48.598Z,11.40
2023-03-19T23:56:20.829Z,11.30
2023-03-19T23:58:51.474Z,11.30
